Time;durP1;ratioP1;P1;durP2;ratioP2;P2;SDS_P1;SDS_P2;PMS_P1;PMS_P2;Temp;Humidity;BMP_temperature;BMP_pressure;BME280_temperature;BME280_humidity;BME280_pressure;Samples;Min_cycle;Max_cycle;Signal;HPM_P1;HPM_P2
2023/03/08 00:01:23;;;;;;;;;;;;;;;4.22;54.58;91273.47;2055593;69;20471;-77
2023/03/08 00:03:53;;;;;;;;;;;;;;;3.93;56.55;91278.63;2068529;69;20046;-73
2023/03/08 00:06:19;;;;;;;;;;;;;;;3.75;57.30;91278.22;2055555;69;20058;-75
2023/03/08 00:08:47;;;;;;;;;;;;;;;3.59;57.42;91283.53;2055544;70;20046;-78
2023/03/08 00:11:13;;;;;;;;;;;;;;;3.69;56.80;91286.19;2055733;70;20589;-75
2023/03/08 00:13:39;;;;;;;;;;;;;;;3.78;56.90;91288.88;2068403;69;20054;-77
2023/03/08 00:16:05;;;;;;;;;;;;;;;3.69;56.24;91292.50;2055760;69;20039;-77
2023/03/08 00:18:31;;;;;;;;;;;;;;;3.67;56.86;91286.09;2055492;70;20953;-78
2023/03/08 00:20:59;;;;;;;;;;;;;;;3.69;55.51;91289.72;2055635;69;20075;-76
2023/03/08 00:23:25;;;;;;;;;;;;;;;3.46;56.68;91303.53;2055642;70;20047;-76
2023/03/08 00:25:51;;;;;;;;;;;;;;;3.42;56.07;91300.50;2055682;70;20054;-78
2023/03/08 00:28:17;;;;;;;;;;;;;;;3.38;57.67;91303.75;2068594;69;20133;-76
2023/03/08 00:30:42;;;;;;;;;;;;;;;3.36;57.44;91303.63;2055668;69;20477;-77
2023/03/08 00:33:08;;;;;;;;;;;;;;;3.16;58.22;91303.06;2055454;70;20055;-77
2023/03/08 00:35:35;;;;;;;;;;;;;;;3.38;57.13;91300.25;2068366;69;20141;-77
2023/03/08 00:38:00;;;;;;;;;;;;;;;3.34;56.17;91303.50;2068508;69;20153;-71
2023/03/08 00:40:26;;;;;;;;;;;;;;;2.89;58.91;91314.50;2055599;69;20155;-77
2023/03/08 00:42:51;;;;;;;;;;;;;;;2.97;57.66;91317.06;2055567;70;20050;-77
2023/03/08 00:45:17;;;;;;;;;;;;;;;3.12;57.70;91327.81;2068564;69;20158;-77
2023/03/08 00:47:42;;;;;;;;;;;;;;;2.99;58.04;91312.41;2068314;69;20070;-77
2023/03/08 00:50:08;;;;;;;;;;;;;;;3.13;56.55;91314.66;2055620;70;20046;-78
2023/03/08 00:52:34;;;;;;;;;;;;;;;3.01;56.41;91317.34;2055313;70;20435;-78
2023/03/08 00:55:00;;;;;;;;;;;;;;;3.01;56.62;91322.91;2055356;69;20101;-77
2023/03/08 00:57:25;;;;;;;;;;;;;;;2.95;57.70;91323.25;2055584;70;20054;-77
2023/03/08 00:59:50;;;;;;;;;;;;;;;2.95;57.54;91337.16;2055303;70;20091;-74
2023/03/08 01:02:16;;;;;;;;;;;;;;;2.89;58.24;91342.31;2055316;70;20435;-74
2023/03/08 01:04:41;;;;;;;;;;;;;;;2.95;58.30;91342.69;2068553;69;20131;-74
2023/03/08 01:07:07;;;;;;;;;;;;;;;2.84;57.50;91332.25;2055875;69;20054;-72
2023/03/08 01:09:32;;;;;;;;;;;;;;;3.04;57.23;91333.56;2055456;70;20420;-76
2023/03/08 01:11:58;;;;;;;;;;;;;;;2.90;56.72;91329.13;2068529;69;20054;-77
2023/03/08 01:14:23;;;;;;;;;;;;;;;2.80;57.07;91326.41;2068455;69;20057;-77
2023/03/08 01:16:49;;;;;;;;;;;;;;;2.77;57.65;91319.25;2055322;70;20109;-78
2023/03/08 01:19:14;;;;;;;;;;;;;;;2.77;57.18;91319.25;2055399;69;20068;-78
2023/03/08 01:21:40;;;;;;;;;;;;;;;2.65;57.88;91319.16;2069317;69;20070;-77
2023/03/08 01:24:06;;;;;;;;;;;;;;;2.84;57.22;91337.06;2058992;69;20073;-76
2023/03/08 01:26:31;;;;;;;;;;;;;;;2.58;57.74;91333.25;2069191;69;20050;-72
2023/03/08 01:28:57;;;;;;;;;;;;;;;2.52;57.97;91328.00;2059299;69;20054;-74
2023/03/08 01:31:23;;;;;;;;;;;;;;;2.45;58.00;91332.44;2073426;69;20496;-73
2023/03/08 01:33:51;;;;;;;;;;;;;;;2.57;57.86;91335.31;2072482;69;20056;-76
2023/03/08 01:36:18;;;;;;;;;;;;;;;2.00;60.53;91325.88;2054733;69;20079;-71
2023/03/08 01:38:44;;;;;;;;;;;;;;;2.30;58.22;91330.03;2048707;70;20112;-76
2023/03/08 01:41:14;;;;;;;;;;;;;;;2.41;58.34;91332.16;2048516;70;20058;-76
2023/03/08 01:43:39;;;;;;;;;;;;;;;2.37;58.25;91317.25;2048650;70;20051;-77
2023/03/08 01:46:10;;;;;;;;;;;;;;;2.39;58.07;91328.53;2048462;70;20082;-77
2023/03/08 01:49:01;;;;;;;;;;;;;;;2.27;58.73;91325.63;2049040;70;20050;-78
2023/03/08 01:51:30;;;;;;;;;;;;;;;2.33;59.43;91334.38;2047878;70;20062;-78
2023/03/08 01:53:58;;;;;;;;;;;;;;;2.14;58.76;91332.41;2048887;70;20201;-75
2023/03/08 01:56:24;;;;;;;;;;;;;;;2.14;59.03;91345.56;2048512;70;20083;-76
2023/03/08 01:58:51;;;;;;;;;;;;;;;2.11;58.99;91346.72;2048355;70;20098;-76
2023/03/08 02:01:17;;;;;;;;;;;;;;;2.22;59.38;91346.13;2049140;70;20096;-76
2023/03/08 02:03:44;;;;;;;;;;;;;;;2.39;58.68;91348.69;2048548;69;20051;-77
2023/03/08 02:06:10;;;;;;;;;;;;;;;2.23;58.58;91353.13;2048388;70;20430;-77
2023/03/08 02:08:35;;;;;;;;;;;;;;;2.18;59.55;91356.94;2049506;70;20062;-76
2023/03/08 02:11:01;;;;;;;;;;;;;;;1.95;59.93;91358.16;2049141;70;20116;-74
2023/03/08 02:13:27;;;;;;;;;;;;;;;2.02;59.15;91360.06;2047653;70;20091;-73
2023/03/08 02:15:55;;;;;;;;;;;;;;;1.90;59.08;91350.88;2045672;70;20134;-78
2023/03/08 02:18:22;;;;;;;;;;;;;;;2.02;60.07;91354.50;2044903;70;20484;-77
2023/03/08 02:20:47;;;;;;;;;;;;;;;1.86;60.64;91342.25;2045009;70;20121;-77
2023/03/08 02:23:14;;;;;;;;;;;;;;;1.93;58.92;91346.22;2045840;70;20067;-77
2023/03/08 02:25:41;;;;;;;;;;;;;;;1.91;60.05;91343.28;2045666;70;20055;-78
2023/03/08 02:28:07;;;;;;;;;;;;;;;1.64;60.48;91337.91;2045082;70;20075;-76
2023/03/08 02:30:35;;;;;;;;;;;;;;;1.84;59.47;91330.31;2045647;69;20051;-77
2023/03/08 02:33:01;;;;;;;;;;;;;;;1.78;60.32;91319.50;2044438;70;20051;-77
2023/03/08 02:35:27;;;;;;;;;;;;;;;1.84;59.87;91311.63;2047636;69;20478;-78
2023/03/08 02:37:53;;;;;;;;;;;;;;;1.99;59.96;91318.88;2045187;70;20059;-76
2023/03/08 02:40:18;;;;;;;;;;;;;;;1.82;59.48;91321.84;2044909;70;20142;-76
2023/03/08 02:42:44;;;;;;;;;;;;;;;1.92;59.13;91316.97;2044919;70;20287;-75
2023/03/08 02:45:10;;;;;;;;;;;;;;;1.90;58.85;91322.41;2045618;70;20067;-77
2023/03/08 02:47:36;;;;;;;;;;;;;;;1.74;58.88;91313.66;2044644;69;20160;-77
2023/03/08 02:50:02;;;;;;;;;;;;;;;1.66;59.39;91324.22;2045083;70;20057;-77
2023/03/08 02:52:28;;;;;;;;;;;;;;;1.77;59.24;91327.09;2042309;70;20142;-77
2023/03/08 02:54:53;;;;;;;;;;;;;;;1.65;60.45;91333.81;2045266;70;20422;-76
2023/03/08 02:57:19;;;;;;;;;;;;;;;1.70;60.04;91336.31;2045532;70;20423;-75
2023/03/08 02:59:45;;;;;;;;;;;;;;;1.58;61.60;91337.50;2044827;70;20100;-72
2023/03/08 03:02:10;;;;;;;;;;;;;;;1.49;60.99;91342.47;2044688;70;20484;-77
2023/03/08 03:04:36;;;;;;;;;;;;;;;1.50;60.95;91332.09;2045484;70;20083;-75
2023/03/08 03:07:01;;;;;;;;;;;;;;;1.59;60.28;91336.19;2044984;70;20523;-72
2023/03/08 03:09:30;;;;;;;;;;;;;;;1.40;61.36;91343.19;2044695;70;20419;-75
2023/03/08 03:11:55;;;;;;;;;;;;;;;1.54;61.29;91346.25;2044898;70;20062;-71
2023/03/08 03:14:21;;;;;;;;;;;;;;;1.55;60.79;91328.28;2044834;70;20595;-72
2023/03/08 03:16:46;;;;;;;;;;;;;;;1.56;60.83;91337.34;2045237;70;20231;-76
2023/03/08 03:19:12;;;;;;;;;;;;;;;1.45;61.74;91328.31;2044916;70;20048;-77
2023/03/08 03:21:39;;;;;;;;;;;;;;;1.54;61.16;91324.06;2044842;70;20519;-76
2023/03/08 03:24:04;;;;;;;;;;;;;;;1.48;60.48;91334.75;2045377;70;20086;-77
2023/03/08 03:26:38;;;;;;;;;;;;;;;1.30;61.65;91338.97;2044966;70;20161;-73
2023/03/08 03:29:04;;;;;;;;;;;;;;;1.38;61.03;91326.44;2042245;70;20129;-75
2023/03/08 03:31:33;;;;;;;;;;;;;;;1.35;60.70;91322.03;2044901;70;20048;-73
2023/03/08 03:33:59;;;;;;;;;;;;;;;1.35;60.55;91321.31;2045427;70;20484;-76
2023/03/08 03:36:26;;;;;;;;;;;;;;;1.35;60.73;91321.31;2044599;70;20055;-75
2023/03/08 03:38:52;;;;;;;;;;;;;;;1.18;61.03;91322.19;2063827;69;20144;-71
2023/03/08 03:41:19;;;;;;;;;;;;;;;1.29;61.01;91320.91;2045469;70;20117;-73
2023/03/08 03:43:45;;;;;;;;;;;;;;;1.25;61.26;91318.56;2064155;69;20117;-75
2023/03/08 03:46:15;;;;;;;;;;;;;;;1.11;60.45;91307.19;2064339;69;20091;-71
2023/03/08 03:48:42;;;;;;;;;;;;;;;1.17;61.26;91315.91;2045208;70;20071;-72
2023/03/08 03:51:15;;;;;;;;;;;;;;;1.20;60.88;91309.22;2045348;70;20047;-76
2023/03/08 03:53:44;;;;;;;;;;;;;;;1.04;62.17;91310.81;2064521;69;20075;-77
2023/03/08 03:56:28;;;;;;;;;;;;;;;1.18;61.67;91324.97;2045694;70;20404;-76
2023/03/08 03:58:57;;;;;;;;;;;;;;;1.32;60.39;91328.03;2045515;69;20053;-77
2023/03/08 04:01:26;;;;;;;;;;;;;;;1.19;60.23;91332.72;2045853;69;20047;-77
2023/03/08 04:03:56;;;;;;;;;;;;;;;1.10;61.54;91338.22;2045123;70;20051;-77
2023/03/08 04:06:24;;;;;;;;;;;;;;;1.09;61.53;91329.19;2042676;69;20051;-77
2023/03/08 04:08:55;;;;;;;;;;;;;;;1.26;61.14;91337.38;2045328;70;20495;-73
2023/03/08 04:11:24;;;;;;;;;;;;;;;1.28;61.46;91342.31;2045346;70;20066;-74
2023/03/08 04:13:50;;;;;;;;;;;;;;;1.20;62.04;91336.22;2045930;70;20055;-72
2023/03/08 04:16:38;;;;;;;;;;;;;;;1.30;60.69;91327.88;2042633;69;20059;-72
2023/03/08 04:19:11;;;;;;;;;;;;;;;1.26;61.56;91322.78;2045246;70;20428;-76
2023/03/08 04:21:39;;;;;;;;;;;;;;;1.12;62.08;91319.72;2045373;70;20150;-76
2023/03/08 04:24:05;;;;;;;;;;;;;;;1.27;61.59;91319.41;2045154;69;20515;-76
2023/03/08 04:26:31;;;;;;;;;;;;;;;1.17;62.89;91312.41;2045385;70;20066;-76
2023/03/08 04:28:56;;;;;;;;;;;;;;;1.18;61.84;91305.56;2045718;70;20114;-76
2023/03/08 04:31:25;;;;;;;;;;;;;;;1.31;62.16;91313.44;2045059;70;20518;-71
2023/03/08 04:33:51;;;;;;;;;;;;;;;1.28;60.79;91306.28;2064071;69;20052;-73
2023/03/08 04:36:18;;;;;;;;;;;;;;;1.36;61.95;91306.88;2045174;70;20150;-76
2023/03/08 04:38:44;;;;;;;;;;;;;;;1.33;61.61;91305.28;2045168;70;20442;-76
2023/03/08 04:41:11;;;;;;;;;;;;;;;0.87;63.68;91305.41;2045744;69;20138;-76
2023/03/08 04:43:44;;;;;;;;;;;;;;;1.08;63.63;91290.97;2045153;70;20141;-76
2023/03/08 04:46:10;;;;;;;;;;;;;;;1.26;62.12;91292.28;2045671;70;20059;-77
2023/03/08 04:48:38;;;;;;;;;;;;;;;1.16;62.39;91286.75;2045279;70;20163;-76
2023/03/08 04:51:04;;;;;;;;;;;;;;;1.20;61.79;91281.50;2044975;70;20140;-78
2023/03/08 04:53:30;;;;;;;;;;;;;;;1.23;61.96;91287.91;2045541;70;20061;-76
2023/03/08 04:55:58;;;;;;;;;;;;;;;1.20;61.76;91284.28;2045567;69;20197;-76
2023/03/08 04:58:24;;;;;;;;;;;;;;;1.32;60.89;91289.94;2045245;70;20081;-76
2023/03/08 05:00:49;;;;;;;;;;;;;;;1.19;61.92;91274.50;2045227;70;20051;-77
2023/03/08 05:03:15;;;;;;;;;;;;;;;1.15;62.08;91290.84;2045745;70;20051;-76
2023/03/08 05:05:48;;;;;;;;;;;;;;;1.19;62.44;91280.03;2045200;70;20051;-75
2023/03/08 05:08:14;;;;;;;;;;;;;;;1.19;61.51;91273.75;2045318;70;20051;-79
2023/03/08 05:10:45;;;;;;;;;;;;;;;1.09;62.97;91275.81;2045289;70;20082;-76
2023/03/08 05:13:11;;;;;;;;;;;;;;;1.17;61.87;91260.47;2045281;70;20392;-77
2023/03/08 05:15:37;;;;;;;;;;;;;;;1.09;63.03;91254.34;2045789;69;20075;-76
2023/03/08 05:18:03;;;;;;;;;;;;;;;1.34;62.40;91258.88;2045704;70;20058;-77
2023/03/08 05:20:28;;;;;;;;;;;;;;;1.22;62.15;91256.69;2045877;70;20059;-77
2023/03/08 05:22:54;;;;;;;;;;;;;;;1.22;62.46;91262.22;2045408;70;20052;-77
2023/03/08 05:25:20;;;;;;;;;;;;;;;1.19;63.14;91252.31;2045233;69;20120;-77
2023/03/08 05:27:45;;;;;;;;;;;;;;;1.20;62.65;91266.91;2045889;70;20051;-77
2023/03/08 05:30:11;;;;;;;;;;;;;;;1.16;62.34;91269.41;2045267;70;20129;-71
2023/03/08 05:32:37;;;;;;;;;;;;;;;1.07;63.01;91270.13;2045129;70;20149;-72
2023/03/08 05:35:03;;;;;;;;;;;;;;;0.98;63.47;91277.84;2045154;70;20054;-72
2023/03/08 05:37:32;;;;;;;;;;;;;;;0.98;63.33;91282.66;2045249;70;20217;-71
2023/03/08 05:40:01;;;;;;;;;;;;;;;0.98;63.61;91274.34;2045257;70;20149;-74
2023/03/08 05:42:30;;;;;;;;;;;;;;;1.03;63.19;91267.78;2064254;69;20118;-76
2023/03/08 05:44:56;;;;;;;;;;;;;;;0.94;62.71;91266.47;2064296;69;20055;-76
2023/03/08 05:47:29;;;;;;;;;;;;;;;0.97;62.39;91259.06;2042489;69;20120;-78
2023/03/08 05:49:55;;;;;;;;;;;;;;;1.11;61.88;91260.06;2045094;70;20044;-77
2023/03/08 05:52:21;;;;;;;;;;;;;;;1.04;63.15;91262.97;2045084;70;20488;-78
2023/03/08 05:54:47;;;;;;;;;;;;;;;1.04;62.79;91268.50;2042377;69;20673;-76
2023/03/08 05:57:17;;;;;;;;;;;;;;;1.14;62.90;91263.69;2045151;70;20541;-78
2023/03/08 05:59:43;;;;;;;;;;;;;;;1.14;62.59;91266.47;2045118;70;20528;-77
2023/03/08 06:02:11;;;;;;;;;;;;;;;1.22;62.72;91273.31;2042409;69;20054;-78
2023/03/08 06:04:48;;;;;;;;;;;;;;;1.17;62.65;91273.63;2045164;70;20119;-75
2023/03/08 06:07:17;;;;;;;;;;;;;;;1.10;64.02;91271.72;2045093;70;20474;-78
2023/03/08 06:09:47;;;;;;;;;;;;;;;1.26;63.01;91273.59;2045202;70;20508;-79
2023/03/08 06:12:16;;;;;;;;;;;;;;;1.28;63.01;91267.47;2045423;69;20059;-75
2023/03/08 06:14:43;;;;;;;;;;;;;;;1.23;63.97;91274.75;2045721;70;20562;-74
2023/03/08 06:17:10;;;;;;;;;;;;;;;1.41;63.04;91267.00;2044997;70;20052;-70
2023/03/08 06:19:40;;;;;;;;;;;;;;;1.40;63.22;91279.44;2045144;70;20055;-79
2023/03/08 06:22:05;;;;;;;;;;;;;;;1.56;62.51;91287.41;2045177;70;20050;-78
2023/03/08 06:24:31;;;;;;;;;;;;;;;1.55;62.96;91285.97;2045063;70;20064;-79
2023/03/08 06:27:00;;;;;;;;;;;;;;;1.63;62.72;91287.25;2045100;70;20427;-78
2023/03/08 06:29:25;;;;;;;;;;;;;;;1.57;63.18;91286.84;2045065;70;20483;-79
2023/03/08 06:31:51;;;;;;;;;;;;;;;1.84;62.62;91278.31;2045094;70;20047;-77
2023/03/08 06:34:17;;;;;;;;;;;;;;;1.80;63.19;91272.47;2045031;70;20067;-80
2023/03/08 06:36:43;;;;;;;;;;;;;;;2.11;62.40;91266.97;2044997;70;20051;-79
2023/03/08 06:39:09;;;;;;;;;;;;;;;2.17;62.24;91274.97;2045043;69;20425;-76
2023/03/08 06:41:34;;;;;;;;;;;;;;;2.20;60.80;91274.53;2045052;70;20055;-75
2023/03/08 06:44:01;;;;;;;;;;;;;;;2.25;61.48;91281.81;2045149;70;20048;-74
2023/03/08 06:46:26;;;;;;;;;;;;;;;2.35;61.56;91283.81;2045523;70;20070;-79
2023/03/08 06:48:53;;;;;;;;;;;;;;;2.22;61.39;91290.59;2045084;70;20134;-76
2023/03/08 06:51:19;;;;;;;;;;;;;;;2.48;60.61;91286.81;2045164;70;20100;-75
2023/03/08 06:53:45;;;;;;;;;;;;;;;2.47;61.65;91290.16;2045077;70;20047;-78
2023/03/08 06:56:13;;;;;;;;;;;;;;;2.50;61.31;91289.72;2045573;69;20201;-76
2023/03/08 06:58:39;;;;;;;;;;;;;;;2.64;61.42;91295.50;2045010;70;20142;-75
2023/03/08 07:01:04;;;;;;;;;;;;;;;2.80;60.65;91293.78;2045533;69;20150;-75
2023/03/08 07:03:30;;;;;;;;;;;;;;;2.85;61.36;91282.94;2045460;70;20475;-72
2023/03/08 07:06:00;;;;;;;;;;;;;;;3.09;61.48;91283.78;2045550;70;20051;-75
2023/03/08 07:08:28;;;;;;;;;;;;;;;2.84;60.86;91295.38;2045522;70;20059;-80
2023/03/08 07:10:54;;;;;;;;;;;;;;;3.01;60.80;91297.88;2045448;69;20055;-76
2023/03/08 07:13:22;;;;;;;;;;;;;;;3.30;60.21;91301.19;2045553;70;20142;-78
2023/03/08 07:15:48;;;;;;;;;;;;;;;3.45;59.31;91302.09;2045503;70;20510;-75
2023/03/08 07:18:13;;;;;;;;;;;;;;;3.46;59.73;91300.75;2045696;70;20047;-71
2023/03/08 07:20:38;;;;;;;;;;;;;;;3.00;60.71;91305.50;2045946;69;20059;-76
2023/03/08 07:23:04;;;;;;;;;;;;;;;3.22;60.32;91297.16;2045969;70;20204;-77
2023/03/08 07:25:29;;;;;;;;;;;;;;;3.23;59.65;91298.59;2046005;70;20055;-77
2023/03/08 07:27:57;;;;;;;;;;;;;;;3.48;59.77;91300.88;2045391;69;20055;-77
2023/03/08 07:30:22;;;;;;;;;;;;;;;3.59;59.66;91305.78;2046067;69;20066;-77
2023/03/08 07:32:48;;;;;;;;;;;;;;;3.53;60.11;91306.13;2045399;70;20048;-75
2023/03/08 07:35:14;;;;;;;;;;;;;;;3.45;59.57;91296.53;2045378;70;20055;-78
2023/03/08 07:37:40;;;;;;;;;;;;;;;3.45;59.34;91285.41;2046164;70;20066;-73
2023/03/08 07:40:06;;;;;;;;;;;;;;;3.42;60.26;91287.31;2046178;70;20411;-76
2023/03/08 07:42:31;;;;;;;;;;;;;;;3.37;59.81;91287.66;2045383;70;20055;-74
2023/03/08 07:45:08;;;;;;;;;;;;;;;3.95;59.21;91281.56;2045460;69;20071;-74
2023/03/08 07:47:36;;;;;;;;;;;;;;;4.15;57.03;91284.84;2046042;70;20047;-76
2023/03/08 07:50:02;;;;;;;;;;;;;;;4.26;58.84;91281.34;2045988;69;20487;-73
2023/03/08 07:52:30;;;;;;;;;;;;;;;4.40;58.95;91279.44;2045896;70;20063;-73
2023/03/08 07:54:56;;;;;;;;;;;;;;;4.64;56.27;91287.78;2046084;70;20044;-73
2023/03/08 07:57:22;;;;;;;;;;;;;;;4.59;57.14;91284.75;2045316;69;20396;-74
2023/03/08 07:59:47;;;;;;;;;;;;;;;3.97;59.62;91271.25;2045967;70;20102;-74
2023/03/08 08:02:13;;;;;;;;;;;;;;;4.61;58.07;91275.78;2045827;70;20083;-73
2023/03/08 08:04:39;;;;;;;;;;;;;;;4.69;58.08;91278.31;2045881;70;20043;-73
2023/03/08 08:07:05;;;;;;;;;;;;;;;4.90;57.10;91263.47;2045248;70;20057;-74
2023/03/08 08:09:30;;;;;;;;;;;;;;;5.21;56.03;91261.09;2045760;70;20048;-74
2023/03/08 08:11:55;;;;;;;;;;;;;;;5.53;55.80;91267.06;2045861;70;20463;-73
2023/03/08 08:14:21;;;;;;;;;;;;;;;5.65;55.41;91264.97;2045875;70;20107;-72
2023/03/08 08:16:46;;;;;;;;;;;;;;;5.72;54.91;91255.56;2045917;70;20086;-73
2023/03/08 08:19:13;;;;;;;;;;;;;;;6.00;52.58;91252.88;2045639;69;20480;-72
2023/03/08 08:21:39;;;;;;;;;;;;;;;5.75;53.90;91250.81;2045774;70;20047;-72
2023/03/08 08:24:05;;;;;;;;;;;;;;;6.06;52.93;91242.78;2045828;70;20059;-71
2023/03/08 08:26:30;;;;;;;;;;;;;;;6.00;53.43;91250.09;2045756;70;20077;-73
2023/03/08 08:28:55;;;;;;;;;;;;;;;6.09;53.30;91241.56;2045823;69;20427;-73
2023/03/08 08:31:22;;;;;;;;;;;;;;;5.56;54.25;91235.88;2045816;70;20047;-74
2023/03/08 08:33:48;;;;;;;;;;;;;;;5.99;53.65;91229.09;2045708;70;20074;-75
2023/03/08 08:36:15;;;;;;;;;;;;;;;6.06;52.69;91211.31;2050486;70;20059;-75
2023/03/08 08:38:45;;;;;;;;;;;;;;;6.56;52.29;91209.72;2052407;70;20066;-76
2023/03/08 08:41:11;;;;;;;;;;;;;;;6.04;51.98;91211.19;2052500;70;20054;-75
2023/03/08 08:43:36;;;;;;;;;;;;;;;6.09;51.65;91210.06;2052409;70;20107;-73
2023/03/08 08:46:03;;;;;;;;;;;;;;;6.37;51.38;91194.09;2052582;70;20494;-73
2023/03/08 08:48:28;;;;;;;;;;;;;;;6.39;50.81;91196.97;2065189;69;20055;-73
2023/03/08 08:50:54;;;;;;;;;;;;;;;6.00;51.85;91199.81;2065210;69;20055;-73
2023/03/08 08:53:20;;;;;;;;;;;;;;;6.52;50.61;91195.53;2052400;70;20094;-75
2023/03/08 08:55:45;;;;;;;;;;;;;;;6.60;50.58;91198.75;2052349;70;20059;-75
2023/03/08 08:58:11;;;;;;;;;;;;;;;6.75;50.20;91192.53;2052676;70;20050;-75
2023/03/08 09:00:37;;;;;;;;;;;;;;;7.18;48.55;91199.50;2052496;70;20062;-74
2023/03/08 09:03:03;;;;;;;;;;;;;;;6.31;50.75;91202.13;2052266;70;20058;-75
2023/03/08 09:05:29;;;;;;;;;;;;;;;6.26;51.21;91197.69;2052293;70;20058;-75
2023/03/08 09:07:57;;;;;;;;;;;;;;;6.39;51.39;91199.03;2052480;69;20473;-74
2023/03/08 09:10:23;;;;;;;;;;;;;;;6.89;49.86;91189.72;2052228;69;20141;-77
2023/03/08 09:12:48;;;;;;;;;;;;;;;7.21;48.91;91178.66;2065202;69;20085;-74
2023/03/08 09:15:14;;;;;;;;;;;;;;;7.45;48.64;91165.09;2052207;70;20459;-73
2023/03/08 09:17:39;;;;;;;;;;;;;;;7.80;47.43;91156.94;2052145;70;20174;-74
2023/03/08 09:20:08;;;;;;;;;;;;;;;7.00;48.65;91160.16;2052395;70;20047;-73
2023/03/08 09:22:34;;;;;;;;;;;;;;;7.54;48.12;91150.84;2052264;69;20061;-75
2023/03/08 09:24:59;;;;;;;;;;;;;;;7.65;47.51;91149.22;2052307;69;20042;-73
2023/03/08 09:27:25;;;;;;;;;;;;;;;6.88;48.30;91155.41;2052360;70;20118;-73
2023/03/08 09:29:50;;;;;;;;;;;;;;;7.28;47.79;91152.41;2052382;70;20434;-75
2023/03/08 09:32:16;;;;;;;;;;;;;;;7.00;48.79;91146.16;2052195;70;20146;-72
2023/03/08 09:34:41;;;;;;;;;;;;;;;6.58;50.01;91148.31;2052217;70;20100;-74
2023/03/08 09:37:07;;;;;;;;;;;;;;;7.08;48.45;91136.09;2052580;70;20069;-73
2023/03/08 09:39:33;;;;;;;;;;;;;;;7.00;47.90;91143.34;2052347;69;20049;-72
2023/03/08 09:42:00;;;;;;;;;;;;;;;7.68;47.04;91145.19;2052170;69;20055;-72
2023/03/08 09:44:42;;;;;;;;;;;;;;;7.79;47.06;91146.34;2052342;70;20042;-75
2023/03/08 09:47:18;;;;;;;;;;;;;;;7.76;47.73;91150.44;2052196;70;20110;-72
2023/03/08 09:49:46;;;;;;;;;;;;;;;7.38;47.40;91144.50;2052202;70;20046;-75
2023/03/08 09:52:14;;;;;;;;;;;;;;;6.85;48.90;91147.53;2052261;70;20138;-73
2023/03/08 09:54:40;;;;;;;;;;;;;;;7.17;48.65;91154.00;2065240;69;20105;-74
2023/03/08 09:57:11;;;;;;;;;;;;;;;7.62;47.46;91158.91;2052255;70;20135;-73
2023/03/08 09:59:54;;;;;;;;;;;;;;;7.77;46.84;91157.47;2052327;70;20069;-75
2023/03/08 10:02:22;;;;;;;;;;;;;;;7.44;47.36;91152.47;2052265;70;20057;-74
2023/03/08 10:04:59;;;;;;;;;;;;;;;7.19;47.51;91147.75;2052174;70;20094;-74
2023/03/08 10:07:51;;;;;;;;;;;;;;;7.78;46.64;91153.31;2065222;69;20051;-75
2023/03/08 10:10:17;;;;;;;;;;;;;;;8.14;46.22;91162.66;2055561;69;20154;-75
2023/03/08 10:12:42;;;;;;;;;;;;;;;8.35;46.47;91169.91;2052268;70;20421;-75
2023/03/08 10:15:13;;;;;;;;;;;;;;;8.69;45.93;91165.09;2052295;70;20054;-76
2023/03/08 10:17:49;;;;;;;;;;;;;;;7.79;47.19;91165.97;2065211;69;20047;-76
2023/03/08 10:20:18;;;;;;;;;;;;;;;7.94;46.70;91159.69;2052345;70;20078;-75
2023/03/08 10:22:45;;;;;;;;;;;;;;;8.46;46.00;91152.19;2065275;69;20051;-74
2023/03/08 10:25:20;;;;;;;;;;;;;;;9.01;44.97;91165.00;2056393;69;20046;-79
2023/03/08 10:27:47;;;;;;;;;;;;;;;9.14;44.08;91156.47;2071889;69;20048;-77
2023/03/08 10:30:14;;;;;;;;;;;;;;;7.98;45.39;91151.47;2075258;69;20045;-77
2023/03/08 10:32:43;;;;;;;;;;;;;;;7.80;46.17;91156.22;2075053;69;20431;-78
2023/03/08 10:35:08;;;;;;;;;;;;;;;7.79;45.80;91163.16;2071820;69;20040;-78
2023/03/08 10:37:34;;;;;;;;;;;;;;;8.22;45.27;91154.63;2075132;69;20045;-76
2023/03/08 10:40:04;;;;;;;;;;;;;;;8.06;45.52;91148.28;2075652;69;20135;-77
2023/03/08 10:42:30;;;;;;;;;;;;;;;7.52;46.67;91147.97;2071898;69;20048;-78
2023/03/08 10:44:58;;;;;;;;;;;;;;;7.88;45.94;91146.13;2075235;69;20133;-78
2023/03/08 10:47:29;;;;;;;;;;;;;;;8.34;45.64;91141.16;2075025;69;20058;-77
2023/03/08 10:50:15;;;;;;;;;;;;;;;8.62;45.07;91149.38;2075237;69;20055;-73
2023/03/08 10:52:41;;;;;;;;;;;;;;;8.58;44.58;91135.16;2075678;69;20056;-78
2023/03/08 10:55:18;;;;;;;;;;;;;;;8.40;45.13;91141.44;2075846;69;20514;-79
2023/03/08 10:57:58;;;;;;;;;;;;;;;8.28;44.62;91129.66;2080044;69;20473;-78
2023/03/08 11:00:24;;;;;;;;;;;;;;;8.68;44.01;91138.41;2080890;69;20044;-77
2023/03/08 11:02:49;;;;;;;;;;;;;;;8.95;44.23;91147.94;2077674;69;20054;-81
2023/03/08 11:05:22;;;;;;;;;;;;;;;8.98;44.24;91149.44;2076410;69;20041;-76
2023/03/08 11:07:58;;;;;;;;;;;;;;;8.58;44.36;91138.69;2075872;69;20075;-78
2023/03/08 11:10:28;;;;;;;;;;;;;;;8.55;44.85;91128.75;2075661;69;20056;-78
2023/03/08 11:13:01;;;;;;;;;;;;;;;8.64;44.48;91121.41;2072252;69;20057;-80
2023/03/08 11:15:28;;;;;;;;;;;;;;;9.24;43.72;91119.66;2075503;69;20055;-80
2023/03/08 11:17:56;;;;;;;;;;;;;;;9.23;43.27;91118.22;2075497;69;20439;-78
2023/03/08 11:20:27;;;;;;;;;;;;;;;9.43;43.11;91115.47;2075605;69;20040;-77
2023/03/08 11:22:55;;;;;;;;;;;;;;;9.54;42.60;91125.75;2075620;69;20048;-75
2023/03/08 11:25:35;;;;;;;;;;;;;;;9.55;42.77;91112.44;2075650;69;20576;-78
2023/03/08 11:28:07;;;;;;;;;;;;;;;9.77;42.92;91110.47;2075602;69;20481;-77
2023/03/08 11:30:51;;;;;;;;;;;;;;;9.91;42.59;91116.63;2075578;69;20059;-78
2023/03/08 11:33:25;;;;;;;;;;;;;;;9.89;42.12;91118.63;2072138;69;20089;-76
2023/03/08 11:35:51;;;;;;;;;;;;;;;9.90;42.55;91112.41;2072839;69;20075;-77
2023/03/08 11:38:18;;;;;;;;;;;;;;;10.35;42.28;91110.50;2075574;69;20159;-74
2023/03/08 11:40:47;;;;;;;;;;;;;;;10.38;41.81;91100.78;2072171;69;20048;-76
2023/03/08 11:43:15;;;;;;;;;;;;;;;10.27;41.92;91096.19;2075520;69;20136;-75
2023/03/08 11:45:53;;;;;;;;;;;;;;;10.79;40.60;91077.59;2075423;69;20056;-77
2023/03/08 11:48:34;;;;;;;;;;;;;;;11.02;40.10;91079.06;2075342;69;20048;-78
2023/03/08 11:51:04;;;;;;;;;;;;;;;10.44;40.73;91089.75;2075674;69;20052;-73
2023/03/08 11:53:48;;;;;;;;;;;;;;;10.55;40.30;91090.84;2075462;69;20045;-78
2023/03/08 11:56:33;;;;;;;;;;;;;;;10.82;40.97;91093.19;2075454;69;20056;-77
2023/03/08 11:59:19;;;;;;;;;;;;;;;10.69;40.35;91094.13;2075421;69;20049;-74
2023/03/08 12:01:47;;;;;;;;;;;;;;;10.73;40.41;91096.38;2075275;69;20147;-78
2023/03/08 12:04:18;;;;;;;;;;;;;;;10.55;40.90;91110.53;2075222;69;20084;-78
2023/03/08 12:06:44;;;;;;;;;;;;;;;10.48;41.24;91106.03;2075573;69;20121;-80
2023/03/08 12:09:13;;;;;;;;;;;;;;;10.66;41.40;91109.50;2075404;69;20048;-77
2023/03/08 12:11:44;;;;;;;;;;;;;;;10.71;41.68;91104.75;2075327;69;20154;-75
2023/03/08 12:14:13;;;;;;;;;;;;;;;10.60;42.00;91112.09;2075376;69;20576;-77
2023/03/08 12:16:47;;;;;;;;;;;;;;;10.65;42.02;91114.41;2075358;69;20421;-78
2023/03/08 12:19:22;;;;;;;;;;;;;;;10.94;41.52;91104.84;2071847;69;20052;-78
2023/03/08 12:21:59;;;;;;;;;;;;;;;11.03;40.89;91113.56;2075313;69;20068;-77
2023/03/08 12:24:31;;;;;;;;;;;;;;;10.63;41.44;91102.38;2071897;69;20048;-79
2023/03/08 12:27:06;;;;;;;;;;;;;;;10.88;41.20;91103.94;2075505;69;20059;-79
2023/03/08 12:29:31;;;;;;;;;;;;;;;11.10;41.41;91109.59;2075194;69;20060;-76
2023/03/08 12:31:58;;;;;;;;;;;;;;;11.29;41.44;91111.63;2075298;69;20064;-79
2023/03/08 12:34:26;;;;;;;;;;;;;;;11.47;41.08;91107.97;2075158;69;20056;-75
2023/03/08 12:36:53;;;;;;;;;;;;;;;11.22;41.60;91115.59;2075285;69;20055;-75
2023/03/08 12:39:36;;;;;;;;;;;;;;;11.19;42.26;91114.84;2075240;69;20052;-75
2023/03/08 12:42:12;;;;;;;;;;;;;;;11.38;42.16;91110.50;2075430;69;20477;-75
2023/03/08 12:44:38;;;;;;;;;;;;;;;11.44;41.44;91110.69;2071940;69;20198;-76
2023/03/08 12:47:13;;;;;;;;;;;;;;;11.30;41.03;91120.78;2069177;69;20052;-74
2023/03/08 12:49:40;;;;;;;;;;;;;;;10.72;42.84;91101.28;2075360;69;20538;-76
2023/03/08 12:52:22;;;;;;;;;;;;;;;11.14;42.92;91090.72;2075392;69;20432;-73
2023/03/08 12:54:59;;;;;;;;;;;;;;;10.84;44.65;91096.06;2075332;69;20052;-75
2023/03/08 12:57:32;;;;;;;;;;;;;;;11.15;44.43;91102.72;2071949;69;20051;-73
2023/03/08 13:00:00;;;;;;;;;;;;;;;11.76;43.74;91103.94;2069217;69;20075;-74